Time;durP1;ratioP1;P1;durP2;ratioP2;P2;SDS_P1;SDS_P2;PMS_P1;PMS_P2;Temp;Humidity;BMP_temperature;BMP_pressure;BME280_temperature;BME280_humidity;BME280_pressure;Samples;Min_cycle;Max_cycle;Signal;HPM_P1;HPM_P2
2023/06/01 00:02:03;;;;;;;9.85;4.63;;;15.40;55.60;;;;;;5033247;28;20028;-73
2023/06/01 00:04:29;;;;;;;8.65;4.30;;;15.30;56.20;;;;;;5033090;28;20577;-73
2023/06/01 00:06:54;;;;;;;7.40;4.75;;;15.30;55.60;;;;;;5032695;28;20108;-72
2023/06/01 00:09:20;;;;;;;6.55;4.88;;;15.30;55.60;;;;;;5032640;28;20068;-73
2023/06/01 00:11:46;;;;;;;8.57;4.50;;;15.20;55.70;;;;;;5032310;28;20477;-73
2023/06/01 00:14:11;;;;;;;7.60;4.70;;;15.20;56.00;;;;;;5036708;28;20367;-72
2023/06/01 00:16:37;;;;;;;9.48;4.95;;;15.20;56.10;;;;;;5036744;28;20021;-73
2023/06/01 00:19:03;;;;;;;5.05;4.55;;;15.10;56.20;;;;;;5036642;28;20438;-72
2023/06/01 00:21:31;;;;;;;7.85;4.65;;;15.20;56.30;;;;;;5036735;28;20104;-72
2023/06/01 00:23:57;;;;;;;6.15;4.68;;;15.20;56.30;;;;;;5036678;28;20041;-73
2023/06/01 00:26:22;;;;;;;8.70;5.00;;;15.20;56.20;;;;;;5036627;28;20021;-72
2023/06/01 00:28:48;;;;;;;8.30;4.78;;;15.20;56.10;;;;;;5036348;28;20136;-73
2023/06/01 00:31:13;;;;;;;6.75;4.82;;;15.10;56.30;;;;;;5036306;28;20036;-73
2023/06/01 00:33:39;;;;;;;8.10;4.85;;;15.00;56.50;;;;;;5036274;28;20120;-73
2023/06/01 00:36:05;;;;;;;6.65;4.82;;;15.00;56.80;;;;;;5036266;28;20029;-73
2023/06/01 00:38:30;;;;;;;8.63;4.95;;;15.00;56.70;;;;;;5036271;28;20033;-72
2023/06/01 00:40:56;;;;;;;5.63;4.55;;;14.90;57.10;;;;;;5035114;28;20095;-72
2023/06/01 00:43:21;;;;;;;8.38;5.40;;;14.90;57.20;;;;;;5036064;28;20021;-73
2023/06/01 00:45:47;;;;;;;7.80;4.80;;;14.90;57.10;;;;;;5035951;28;20116;-72
2023/06/01 00:48:15;;;;;;;7.20;4.40;;;15.00;57.20;;;;;;5035981;28;20034;-73
2023/06/01 00:50:41;;;;;;;8.00;5.25;;;14.80;57.20;;;;;;5036132;28;20501;-73
2023/06/01 00:53:10;;;;;;;9.43;4.97;;;14.80;57.50;;;;;;5035981;28;20017;-73
2023/06/01 00:55:36;;;;;;;6.90;4.57;;;14.80;57.60;;;;;;5036043;28;20432;-73
2023/06/01 00:58:02;;;;;;;9.32;5.30;;;14.70;57.90;;;;;;5035920;28;20029;-73
2023/06/01 01:00:29;;;;;;;7.97;5.30;;;14.70;58.00;;;;;;5036020;28;20108;-72
2023/06/01 01:02:56;;;;;;;6.85;4.88;;;14.70;58.20;;;;;;5036085;28;20474;-73
2023/06/01 01:05:26;;;;;;;7.53;4.93;;;14.70;58.30;;;;;;5042356;28;20489;-73
2023/06/01 01:08:17;;;;;;;7.47;5.13;;;14.70;58.30;;;;;;5035967;28;20017;-73
2023/06/01 01:11:14;;;;;;;6.22;4.53;;;14.70;58.20;;;;;;5035883;28;20022;-73
2023/06/01 01:14:18;;;;;;;9.70;5.15;;;14.70;58.30;;;;;;5036014;28;20112;-72
2023/06/01 01:17:02;;;;;;;7.03;4.57;;;14.60;58.30;;;;;;5034581;28;20117;-72
2023/06/01 01:20:08;;;;;;;6.22;4.18;;;14.70;58.30;;;;;;5035678;28;20482;-74
2023/06/01 01:22:53;;;;;;;7.05;5.10;;;14.70;58.30;;;;;;5035134;28;20025;-74
2023/06/01 01:25:37;;;;;;;5.93;4.20;;;14.80;58.30;;;;;;5035300;28;20025;-73
2023/06/01 01:28:20;;;;;;;7.72;5.72;;;14.80;58.10;;;;;;5035725;28;20026;-74
2023/06/01 01:30:47;;;;;;;8.18;4.85;;;14.70;58.10;;;;;;5035582;28;20029;-74
2023/06/01 01:33:14;;;;;;;9.00;4.45;;;14.70;58.10;;;;;;5035493;28;20029;-74
2023/06/01 01:35:41;;;;;;;7.63;4.95;;;14.70;57.90;;;;;;5035191;28;20017;-74
2023/06/01 01:38:06;;;;;;;8.43;4.70;;;14.60;58.10;;;;;;5035246;28;20029;-72
2023/06/01 01:40:32;;;;;;;8.25;5.53;;;14.60;58.30;;;;;;5035321;28;20033;-72
2023/06/01 01:42:58;;;;;;;9.70;5.25;;;14.30;59.00;;;;;;5035047;28;20095;-73
2023/06/01 01:45:24;;;;;;;5.75;4.05;;;14.20;59.40;;;;;;5035311;28;20119;-73
2023/06/01 01:48:08;;;;;;;8.32;4.95;;;14.10;59.70;;;;;;5035018;28;20057;-72
2023/06/01 01:50:41;;;;;;;6.60;5.05;;;14.10;59.70;;;;;;5035252;28;20032;-71
2023/06/01 01:53:09;;;;;;;7.85;4.72;;;14.20;60.00;;;;;;5035001;28;20045;-72
2023/06/01 01:55:36;;;;;;;7.32;4.18;;;14.10;60.10;;;;;;5035072;28;20044;-72
2023/06/01 01:58:03;;;;;;;7.47;4.70;;;14.20;60.20;;;;;;5034948;28;20490;-72
2023/06/01 02:00:30;;;;;;;8.05;4.97;;;14.20;60.20;;;;;;5034803;28;20039;-72
2023/06/01 02:02:55;;;;;;;8.23;4.97;;;14.20;60.20;;;;;;5035007;28;20018;-72
2023/06/01 02:05:21;;;;;;;7.82;4.90;;;14.20;60.10;;;;;;5034960;28;20152;-71
2023/06/01 02:07:46;;;;;;;9.93;5.13;;;14.20;60.10;;;;;;5033533;28;20421;-71
2023/06/01 02:10:12;;;;;;;6.53;4.53;;;14.20;60.20;;;;;;5034597;28;20486;-72
2023/06/01 02:12:38;;;;;;;5.55;4.57;;;14.20;60.20;;;;;;5034709;28;20078;-72
2023/06/01 02:15:04;;;;;;;7.32;4.78;;;14.20;60.20;;;;;;5034753;28;20021;-71
2023/06/01 02:17:30;;;;;;;6.90;4.63;;;14.10;60.30;;;;;;5034517;28;20029;-71
2023/06/01 02:19:55;;;;;;;8.48;4.50;;;14.10;60.30;;;;;;5034490;28;20165;-71
2023/06/01 02:22:21;;;;;;;8.60;4.90;;;14.10;60.60;;;;;;5034562;28;20087;-71
2023/06/01 02:24:47;;;;;;;7.28;4.20;;;14.00;60.60;;;;;;5033003;28;20030;-71
2023/06/01 02:27:12;;;;;;;6.47;4.80;;;14.00;60.60;;;;;;5034560;28;20063;-72
2023/06/01 02:29:38;;;;;;;5.88;4.78;;;14.00;60.80;;;;;;5033053;28;20120;-72
2023/06/01 02:32:04;;;;;;;10.73;4.47;;;13.90;61.10;;;;;;5034192;28;20021;-72
2023/06/01 02:34:29;;;;;;;7.47;5.00;;;13.90;61.00;;;;;;5034039;28;20022;-72
2023/06/01 02:36:55;;;;;;;7.60;4.97;;;13.80;60.90;;;;;;5034055;28;20025;-72
2023/06/01 02:39:22;;;;;;;10.93;5.32;;;13.80;61.20;;;;;;5034139;28;20116;-72
2023/06/01 02:41:47;;;;;;;8.68;5.03;;;13.70;61.50;;;;;;5034045;28;20017;-73
2023/06/01 02:44:13;;;;;;;10.73;5.47;;;13.60;62.50;;;;;;5033910;28;20034;-72
2023/06/01 02:46:38;;;;;;;8.60;4.95;;;13.60;62.00;;;;;;5033804;28;20018;-71
2023/06/01 02:49:04;;;;;;;6.00;4.85;;;13.50;63.00;;;;;;5033968;28;20136;-72
2023/06/01 02:51:31;;;;;;;8.93;4.93;;;13.50;62.20;;;;;;5033895;28;20108;-71
2023/06/01 02:53:56;;;;;;;9.15;4.82;;;13.50;62.40;;;;;;5032626;28;20033;-71
2023/06/01 02:56:22;;;;;;;7.10;4.75;;;13.50;62.20;;;;;;5033718;28;20478;-72
2023/06/01 02:58:48;;;;;;;10.07;5.13;;;13.50;62.20;;;;;;5033837;28;20123;-73
2023/06/01 03:01:14;;;;;;;9.43;4.78;;;13.60;62.20;;;;;;5033648;28;20075;-72
2023/06/01 03:03:40;;;;;;;6.80;4.65;;;13.60;62.10;;;;;;5033668;28;20021;-73
2023/06/01 03:06:06;;;;;;;7.22;5.10;;;13.60;62.20;;;;;;5033610;28;20501;-73
2023/06/01 03:08:32;;;;;;;9.63;5.32;;;13.50;62.00;;;;;;5033560;28;20052;-72
2023/06/01 03:10:58;;;;;;;8.00;5.45;;;13.40;62.20;;;;;;5033563;28;20053;-72
2023/06/01 03:13:23;;;;;;;8.57;5.10;;;13.40;62.40;;;;;;5033280;28;20497;-72
2023/06/01 03:15:50;;;;;;;11.63;5.50;;;13.40;62.60;;;;;;5033329;28;20398;-71
2023/06/01 03:18:15;;;;;;;9.25;5.75;;;13.30;63.00;;;;;;5033375;28;20017;-71
2023/06/01 03:20:41;;;;;;;7.32;5.35;;;13.30;63.10;;;;;;5033199;28;20034;-73
2023/06/01 03:23:07;;;;;;;9.18;5.10;;;13.20;63.10;;;;;;5033336;28;20064;-73
2023/06/01 03:25:33;;;;;;;11.45;5.65;;;13.20;63.20;;;;;;5033224;28;20044;-73
2023/06/01 03:27:58;;;;;;;8.90;5.78;;;13.10;63.60;;;;;;5033128;28;20060;-73
2023/06/01 03:30:25;;;;;;;7.90;5.15;;;13.20;63.50;;;;;;5033353;28;20060;-72
2023/06/01 03:32:51;;;;;;;9.93;6.00;;;13.20;63.50;;;;;;5033156;28;20032;-72
2023/06/01 03:35:17;;;;;;;8.65;5.38;;;13.20;63.30;;;;;;5033240;28;20025;-72
2023/06/01 03:37:44;;;;;;;10.38;6.70;;;13.30;63.40;;;;;;5033117;28;20041;-73
2023/06/01 03:40:10;;;;;;;10.02;6.88;;;13.20;63.30;;;;;;5033045;28;20034;-73
2023/06/01 03:42:44;;;;;;;9.95;6.47;;;13.30;63.30;;;;;;5033180;28;20501;-72
2023/06/01 03:45:10;;;;;;;8.32;6.53;;;13.20;63.20;;;;;;5033016;28;20076;-72
2023/06/01 03:47:36;;;;;;;7.82;5.80;;;13.20;63.50;;;;;;5032306;28;20026;-72
2023/06/01 03:50:06;;;;;;;8.95;6.18;;;13.20;63.60;;;;;;5032576;28;20056;-73
2023/06/01 03:52:32;;;;;;;7.57;5.18;;;13.20;63.60;;;;;;5032579;28;20425;-72
2023/06/01 03:55:01;;;;;;;8.70;6.13;;;13.20;63.50;;;;;;5032611;28;20075;-73
2023/06/01 03:57:26;;;;;;;7.32;5.38;;;13.20;63.50;;;;;;5032734;28;20017;-73
2023/06/01 03:59:52;;;;;;;8.38;5.53;;;13.10;63.60;;;;;;5032802;28;20044;-73
2023/06/01 04:02:18;;;;;;;10.20;6.07;;;13.10;63.80;;;;;;5032801;28;20022;-73
2023/06/01 04:04:47;;;;;;;12.15;5.35;;;13.10;64.00;;;;;;5032775;28;20026;-73
2023/06/01 04:07:21;;;;;;;8.93;5.70;;;13.10;63.70;;;;;;5032690;28;20021;-73
2023/06/01 04:09:47;;;;;;;8.00;5.50;;;13.10;63.70;;;;;;5032691;28;20504;-72
2023/06/01 04:12:13;;;;;;;8.00;5.32;;;13.20;63.40;;;;;;5032840;28;20091;-73
2023/06/01 04:14:40;;;;;;;6.68;4.95;;;13.20;63.40;;;;;;5032721;28;20100;-72
2023/06/01 04:17:06;;;;;;;7.28;5.38;;;13.30;63.30;;;;;;5031353;28;20030;-73
2023/06/01 04:19:34;;;;;;;7.13;4.80;;;13.40;63.00;;;;;;5032407;28;20475;-73
2023/06/01 04:22:00;;;;;;;8.98;5.20;;;13.50;62.80;;;;;;5032857;28;20029;-73
2023/06/01 04:24:25;;;;;;;11.73;5.32;;;13.60;62.60;;;;;;5032651;28;20021;-72
2023/06/01 04:26:51;;;;;;;9.25;5.07;;;13.60;62.40;;;;;;5032516;28;20108;-73
2023/06/01 04:29:19;;;;;;;7.43;5.25;;;13.70;62.10;;;;;;5032561;28;20131;-72
2023/06/01 04:31:45;;;;;;;9.10;5.50;;;13.70;61.90;;;;;;5032632;28;20017;-72
2023/06/01 04:34:11;;;;;;;11.48;5.85;;;13.80;61.90;;;;;;5032517;28;20079;-73
2023/06/01 04:36:38;;;;;;;9.13;4.90;;;13.80;61.70;;;;;;5032534;28;20037;-72
2023/06/01 04:39:07;;;;;;;10.90;5.75;;;13.90;61.70;;;;;;5031249;28;20068;-72
2023/06/01 04:41:38;;;;;;;10.02;5.85;;;13.90;61.50;;;;;;5032525;28;20021;-73
2023/06/01 04:44:06;;;;;;;8.40;5.47;;;14.00;61.40;;;;;;5032514;28;20029;-72
2023/06/01 04:46:32;;;;;;;6.63;5.20;;;14.00;61.10;;;;;;5032439;28;20017;-73
2023/06/01 04:48:59;;;;;;;8.77;5.95;;;14.10;61.10;;;;;;5032407;28;20045;-72
2023/06/01 04:51:26;;;;;;;9.18;5.65;;;14.20;60.60;;;;;;5031111;28;20064;-73
2023/06/01 04:53:53;;;;;;;9.05;5.85;;;14.20;60.30;;;;;;5032944;28;20504;-73
2023/06/01 04:56:20;;;;;;;9.05;5.75;;;14.30;60.20;;;;;;5032431;28;20037;-72
2023/06/01 04:58:47;;;;;;;10.10;5.45;;;14.30;60.10;;;;;;5034787;28;20021;-73
2023/06/01 05:01:15;;;;;;;9.43;5.55;;;14.40;60.30;;;;;;5036054;28;20037;-74
2023/06/01 05:03:47;;;;;;;7.18;5.07;;;14.50;60.00;;;;;;5035947;28;20025;-72
2023/06/01 05:06:13;;;;;;;10.15;4.85;;;14.70;59.80;;;;;;5035920;28;20033;-72
2023/06/01 05:08:39;;;;;;;7.68;5.18;;;14.80;59.50;;;;;;5034462;28;20423;-72
2023/06/01 05:11:06;;;;;;;8.38;5.38;;;15.00;59.20;;;;;;5035731;28;20033;-71
2023/06/01 05:13:33;;;;;;;7.13;4.90;;;15.10;58.90;;;;;;5035698;28;20021;-72
2023/06/01 05:15:59;;;;;;;9.75;5.68;;;15.20;58.60;;;;;;5035755;28;20025;-72
2023/06/01 05:18:24;;;;;;;7.50;5.70;;;15.30;58.30;;;;;;5035674;28;20036;-72
2023/06/01 05:20:50;;;;;;;7.43;5.20;;;15.40;58.00;;;;;;5035497;28;20101;-72
2023/06/01 05:23:15;;;;;;;8.05;5.30;;;15.40;57.80;;;;;;5035585;28;20075;-72
2023/06/01 05:25:41;;;;;;;6.15;4.82;;;15.50;57.90;;;;;;5034196;28;20030;-71
2023/06/01 05:28:06;;;;;;;7.55;5.28;;;15.60;57.90;;;;;;5035316;28;20037;-71
2023/06/01 05:30:32;;;;;;;10.55;6.35;;;15.70;57.90;;;;;;5035223;28;20052;-71
2023/06/01 05:32:57;;;;;;;9.05;4.95;;;15.80;57.50;;;;;;5035456;28;20032;-71
2023/06/01 05:35:23;;;;;;;7.70;5.53;;;15.90;57.40;;;;;;5035442;28;20490;-72
2023/06/01 05:37:48;;;;;;;8.88;5.82;;;15.90;57.10;;;;;;5035283;28;20109;-73
2023/06/01 05:40:14;;;;;;;6.22;4.72;;;16.00;56.90;;;;;;5035166;28;20056;-73
2023/06/01 05:42:40;;;;;;;9.95;5.38;;;16.10;56.70;;;;;;5035052;28;20497;-72
2023/06/01 05:45:06;;;;;;;9.15;5.60;;;16.20;56.10;;;;;;5035063;28;20029;-73
2023/06/01 05:47:32;;;;;;;12.68;6.00;;;16.30;55.80;;;;;;5033848;28;20021;-73
2023/06/01 05:49:57;;;;;;;10.20;5.50;;;16.40;55.50;;;;;;5034908;28;20076;-73
2023/06/01 05:52:23;;;;;;;13.75;7.38;;;16.50;55.10;;;;;;5034932;28;20374;-73
2023/06/01 05:54:50;;;;;;;8.02;6.13;;;16.50;54.90;;;;;;5034628;28;20029;-73
2023/06/01 05:57:16;;;;;;;10.10;5.60;;;16.60;54.40;;;;;;5034236;28;20018;-73
2023/06/01 05:59:42;;;;;;;9.18;5.07;;;16.60;54.30;;;;;;5034696;28;20037;-72
2023/06/01 06:02:07;;;;;;;9.32;5.75;;;16.80;54.20;;;;;;5033569;28;20386;-71
2023/06/01 06:04:33;;;;;;;11.20;5.80;;;16.80;53.00;;;;;;5034633;28;20021;-72
2023/06/01 06:06:58;;;;;;;7.80;5.40;;;16.90;53.00;;;;;;5034738;28;20421;-72
2023/06/01 06:09:25;;;;;;;9.38;5.95;;;16.90;52.60;;;;;;5033961;28;20026;-73
2023/06/01 06:11:51;;;;;;;9.70;5.85;;;16.90;51.20;;;;;;5034715;28;20026;-73
2023/06/01 06:14:16;;;;;;;8.77;5.32;;;16.70;51.20;;;;;;5034554;28;20022;-72
2023/06/01 06:16:42;;;;;;;7.75;5.22;;;16.70;51.90;;;;;;5033221;28;20025;-73
2023/06/01 06:19:07;;;;;;;8.63;5.57;;;16.80;52.00;;;;;;5034380;28;20095;-72
2023/06/01 06:21:33;;;;;;;12.23;5.38;;;16.90;51.70;;;;;;5034468;28;20021;-72
2023/06/01 06:23:59;;;;;;;15.90;5.60;;;17.00;51.20;;;;;;5034365;28;20041;-73
2023/06/01 06:26:26;;;;;;;9.40;4.90;;;17.10;51.60;;;;;;5034143;28;20100;-71
2023/06/01 06:28:52;;;;;;;9.32;5.05;;;17.10;51.90;;;;;;5034065;28;20168;-72
2023/06/01 06:31:17;;;;;;;9.98;5.60;;;17.30;51.90;;;;;;5034286;28;20101;-72
2023/06/01 06:33:43;;;;;;;7.65;4.45;;;17.40;51.40;;;;;;5034107;28;20149;-73
2023/06/01 06:36:08;;;;;;;7.15;4.80;;;17.50;50.70;;;;;;5033991;28;20385;-72
2023/06/01 06:38:34;;;;;;;9.63;5.00;;;17.70;50.10;;;;;;5033803;28;20033;-73
2023/06/01 06:41:00;;;;;;;10.50;5.30;;;17.90;49.60;;;;;;5033605;28;20032;-73
2023/06/01 06:43:25;;;;;;;9.57;5.03;;;18.00;49.40;;;;;;5032484;28;20036;-72
2023/06/01 06:45:51;;;;;;;10.40;5.53;;;18.20;49.20;;;;;;5033885;28;20434;-72
2023/06/01 06:48:16;;;;;;;9.45;5.00;;;18.10;49.20;;;;;;5033464;28;20498;-72
2023/06/01 06:50:44;;;;;;;11.75;5.53;;;18.20;48.90;;;;;;5033739;28;20026;-72
2023/06/01 06:53:10;;;;;;;10.77;5.03;;;18.30;48.20;;;;;;5034010;28;20025;-72
2023/06/01 06:55:36;;;;;;;8.75;5.00;;;18.30;47.50;;;;;;5033709;28;20032;-72
2023/06/01 06:58:01;;;;;;;12.35;5.43;;;18.40;47.20;;;;;;5032081;28;20018;-71
2023/06/01 07:00:27;;;;;;;10.52;5.45;;;18.40;46.50;;;;;;5033328;28;20087;-72
2023/06/01 07:02:53;;;;;;;9.85;6.57;;;18.30;46.90;;;;;;5032163;28;20044;-73
2023/06/01 07:05:19;;;;;;;12.38;5.68;;;18.40;47.10;;;;;;5033300;28;20029;-73
2023/06/01 07:07:45;;;;;;;7.68;4.63;;;18.30;48.40;;;;;;5033379;28;20100;-73
2023/06/01 07:10:10;;;;;;;12.73;5.43;;;18.40;48.10;;;;;;5033289;28;20464;-73
2023/06/01 07:12:36;;;;;;;10.52;4.85;;;18.60;48.00;;;;;;5032111;28;20028;-73
2023/06/01 07:15:02;;;;;;;13.38;5.57;;;18.60;48.50;;;;;;5033492;28;20021;-72
2023/06/01 07:17:27;;;;;;;11.32;5.13;;;18.80;47.60;;;;;;5033228;28;20018;-72
2023/06/01 07:19:53;;;;;;;12.20;4.25;;;19.00;47.20;;;;;;5032018;28;20467;-72
2023/06/01 07:22:20;;;;;;;18.48;5.25;;;19.00;47.50;;;;;;5032415;28;20131;-74
2023/06/01 07:24:47;;;;;;;8.90;4.95;;;19.00;49.80;;;;;;5032965;28;20049;-73
2023/06/01 07:27:13;;;;;;;9.07;3.83;;;19.20;48.10;;;;;;5033081;28;20097;-74
2023/06/01 07:29:39;;;;;;;12.98;4.43;;;19.30;50.30;;;;;;5033023;28;20018;-74
2023/06/01 07:32:05;;;;;;;9.75;4.65;;;19.50;47.40;;;;;;5032866;28;20152;-74
2023/06/01 07:34:33;;;;;;;12.23;5.20;;;19.80;49.10;;;;;;5032730;28;20018;-75
2023/06/01 07:36:59;;;;;;;9.32;4.38;;;19.80;46.00;;;;;;5032967;28;20021;-75
2023/06/01 07:39:25;;;;;;;9.30;4.55;;;20.10;47.60;;;;;;5032724;28;20040;-76
2023/06/01 07:41:53;;;;;;;8.73;4.80;;;20.30;45.40;;;;;;5032778;28;20421;-76
2023/06/01 07:44:20;;;;;;;8.98;4.72;;;20.50;44.90;;;;;;5032903;28;20032;-76
2023/06/01 07:46:45;;;;;;;15.27;5.93;;;20.50;44.90;;;;;;5032763;28;20013;-74
2023/06/01 07:49:13;;;;;;;10.18;5.35;;;20.50;44.30;;;;;;5032480;28;20502;-74
2023/06/01 07:51:42;;;;;;;12.35;5.13;;;20.30;45.10;;;;;;5032978;28;20047;-76
2023/06/01 07:54:08;;;;;;;15.35;5.55;;;20.30;46.10;;;;;;5033678;28;20032;-77
2023/06/01 07:56:34;;;;;;;12.52;5.43;;;20.30;45.30;;;;;;5034094;28;20378;-75
2023/06/01 07:59:00;;;;;;;13.40;7.68;;;20.40;46.10;;;;;;5031246;28;20039;-76
2023/06/01 08:01:25;;;;;;;11.50;5.75;;;20.30;45.60;;;;;;5032155;28;20034;-77
2023/06/01 08:03:52;;;;;;;11.02;5.75;;;20.20;46.10;;;;;;5032579;28;20021;-75
2023/06/01 08:06:17;;;;;;;10.23;6.05;;;20.30;45.40;;;;;;5032349;28;20088;-77
2023/06/01 08:08:45;;;;;;;10.52;5.45;;;20.20;45.50;;;;;;5032292;28;20080;-76
2023/06/01 08:11:10;;;;;;;12.35;5.68;;;20.00;47.40;;;;;;5032403;28;20032;-78
2023/06/01 08:13:36;;;;;;;10.85;5.13;;;20.10;47.30;;;;;;5032626;28;20428;-78
2023/06/01 08:16:03;;;;;;;10.70;5.22;;;20.30;47.20;;;;;;5032459;28;20026;-78
2023/06/01 08:18:29;;;;;;;13.95;5.72;;;20.40;46.50;;;;;;5032334;28;20025;-78
2023/06/01 08:20:56;;;;;;;7.65;4.93;;;20.50;47.20;;;;;;5032286;28;20493;-76
2023/06/01 08:23:24;;;;;;;12.18;6.00;;;20.80;46.70;;;;;;5032265;28;20381;-76
2023/06/01 08:25:50;;;;;;;11.18;5.38;;;21.00;46.40;;;;;;5032422;28;20377;-76
2023/06/01 08:28:16;;;;;;;11.55;5.57;;;21.20;46.50;;;;;;5032454;28;20457;-76
2023/06/01 08:30:41;;;;;;;11.82;5.68;;;21.30;46.10;;;;;;5032230;28;20462;-76
2023/06/01 08:33:07;;;;;;;12.38;5.90;;;21.20;46.40;;;;;;5033810;28;20159;-76
2023/06/01 08:35:34;;;;;;;9.13;5.10;;;21.10;46.30;;;;;;5036175;28;20021;-75
2023/06/01 08:38:00;;;;;;;12.55;5.85;;;21.10;47.00;;;;;;5036053;28;20419;-75
2023/06/01 08:40:27;;;;;;;11.27;5.93;;;21.30;47.00;;;;;;5035867;28;20033;-75
2023/06/01 08:43:16;;;;;;;13.85;6.68;;;21.40;46.60;;;;;;5036005;28;20049;-75
2023/06/01 08:45:43;;;;;;;10.25;5.18;;;21.50;46.40;;;;;;5028089;28;20033;-75
2023/06/01 08:48:12;;;;;;;13.45;4.97;;;21.60;45.60;;;;;;5035855;28;20064;-75
2023/06/01 08:50:37;;;;;;;11.45;5.32;;;21.70;45.60;;;;;;5036008;28;20032;-75
2023/06/01 08:53:05;;;;;;;9.77;5.38;;;21.70;44.90;;;;;;5036320;28;20029;-75
2023/06/01 08:55:31;;;;;;;8.68;4.70;;;21.80;45.60;;;;;;5036076;28;20462;-75
2023/06/01 08:57:57;;;;;;;13.88;5.50;;;21.90;44.90;;;;;;5036000;28;20170;-75
2023/06/01 09:00:23;;;;;;;15.90;5.32;;;22.00;44.80;;;;;;5035743;28;20069;-75
2023/06/01 09:02:49;;;;;;;13.20;5.38;;;22.20;44.80;;;;;;5035865;28;20430;-75
2023/06/01 09:05:17;;;;;;;11.88;5.25;;;22.40;43.80;;;;;;5035842;28;20083;-76
2023/06/01 09:07:42;;;;;;;11.23;5.13;;;22.60;43.30;;;;;;5035334;28;20017;-75
2023/06/01 09:10:08;;;;;;;8.77;5.00;;;22.80;42.90;;;;;;5035822;28;20044;-75
2023/06/01 09:12:34;;;;;;;14.50;5.00;;;22.80;42.10;;;;;;5035709;28;20017;-79
2023/06/01 09:15:08;;;;;;;10.32;5.00;;;22.70;42.20;;;;;;5034381;28;20025;-76
2023/06/01 09:17:35;;;;;;;9.20;5.32;;;22.70;42.30;;;;;;5035608;28;20025;-74
2023/06/01 09:20:00;;;;;;;9.98;5.13;;;22.70;42.50;;;;;;5035542;28;20052;-76
2023/06/01 09:22:40;;;;;;;10.43;5.20;;;22.70;42.30;;;;;;5035523;28;20018;-80
2023/06/01 09:25:06;;;;;;;7.88;5.10;;;22.90;42.10;;;;;;5035545;28;20079;-78
2023/06/01 09:27:43;;;;;;;8.45;4.55;;;22.80;41.90;;;;;;5035419;28;20017;-75
2023/06/01 09:30:09;;;;;;;7.93;4.88;;;22.90;42.10;;;;;;5035492;28;20014;-76
2023/06/01 09:32:35;;;;;;;11.25;4.80;;;23.10;41.40;;;;;;5035208;28;20493;-78
2023/06/01 09:35:00;;;;;;;8.30;4.28;;;23.40;41.40;;;;;;5035323;28;20032;-76
2023/06/01 09:37:26;;;;;;;10.23;4.68;;;23.50;41.10;;;;;;5033898;28;20068;-75
2023/06/01 09:39:52;;;;;;;10.70;5.15;;;23.70;40.40;;;;;;5035161;28;20038;-75
2023/06/01 09:42:17;;;;;;;9.50;5.47;;;23.80;39.70;;;;;;5034888;28;20385;-75
2023/06/01 09:44:43;;;;;;;11.07;5.07;;;23.70;39.30;;;;;;5033968;28;20045;-75
2023/06/01 09:47:12;;;;;;;10.63;6.28;;;23.70;39.10;;;;;;5035090;28;20026;-77
2023/06/01 09:49:42;;;;;;;9.43;5.40;;;23.90;39.50;;;;;;5034855;28;20049;-75
2023/06/01 09:52:10;;;;;;;10.60;4.70;;;24.00;38.80;;;;;;5034840;28;20104;-76
2023/06/01 09:54:41;;;;;;;7.18;4.55;;;24.10;37.80;;;;;;5033399;28;20030;-76
2023/06/01 09:57:08;;;;;;;10.60;4.75;;;24.10;38.50;;;;;;5034305;28;20100;-76
2023/06/01 09:59:41;;;;;;;9.90;5.75;;;24.20;37.90;;;;;;5034470;28;20399;-75
2023/06/01 10:02:11;;;;;;;9.55;4.70;;;24.30;37.20;;;;;;5034113;28;20025;-75
2023/06/01 10:04:39;;;;;;;7.93;4.95;;;24.30;36.90;;;;;;5034294;28;20028;-76
2023/06/01 10:07:06;;;;;;;8.63;5.18;;;24.50;36.50;;;;;;5034333;28;20034;-74
2023/06/01 10:09:33;;;;;;;10.07;5.20;;;24.70;35.70;;;;;;5034100;28;20560;-77
2023/06/01 10:11:59;;;;;;;10.77;5.28;;;25.00;34.70;;;;;;5034479;28;20076;-76
2023/06/01 10:14:25;;;;;;;8.07;4.60;;;25.00;34.00;;;;;;5034449;28;20493;-76
2023/06/01 10:16:53;;;;;;;9.27;5.63;;;25.10;34.30;;;;;;5034349;28;20057;-76
2023/06/01 10:19:21;;;;;;;10.82;5.30;;;25.30;34.10;;;;;;5034399;28;20036;-76
2023/06/01 10:21:47;;;;;;;6.20;4.22;;;25.00;33.10;;;;;;5034472;28;20548;-76
2023/06/01 10:24:17;;;;;;;9.05;5.13;;;25.00;33.70;;;;;;5034348;28;20025;-75
2023/06/01 10:27:10;;;;;;;10.15;5.43;;;25.30;33.90;;;;;;5034413;28;20021;-78
2023/06/01 10:29:36;;;;;;;10.80;5.25;;;25.50;32.50;;;;;;5034498;28;20398;-77
2023/06/01 10:32:02;;;;;;;15.05;5.05;;;25.70;31.90;;;;;;5034087;28;20022;-75
2023/06/01 10:34:42;;;;;;;12.02;5.00;;;25.70;32.40;;;;;;5033906;28;20030;-73
2023/06/01 10:37:07;;;;;;;10.07;5.57;;;25.90;32.00;;;;;;5034347;28;20033;-80
2023/06/01 10:39:34;;;;;;;8.73;5.05;;;26.10;33.80;;;;;;5033945;28;20038;-74
2023/06/01 10:42:14;;;;;;;6.82;4.75;;;26.30;31.10;;;;;;5033884;28;20482;-78
2023/06/01 10:44:40;;;;;;;9.68;5.45;;;26.00;31.70;;;;;;5034053;28;20061;-77
2023/06/01 10:47:11;;;;;;;13.13;5.28;;;26.20;31.50;;;;;;5034741;28;20098;-75
2023/06/01 10:49:46;;;;;;;9.68;5.43;;;26.00;32.20;;;;;;5040127;28;20076;-78
2023/06/01 10:52:27;;;;;;;9.00;5.28;;;25.80;31.10;;;;;;5042207;28;20421;-81
2023/06/01 10:54:54;;;;;;;8.75;5.13;;;25.70;31.60;;;;;;5034674;28;20500;-75
2023/06/01 10:57:24;;;;;;;7.63;5.18;;;25.60;32.20;;;;;;5032838;28;20033;-74
2023/06/01 11:00:14;;;;;;;8.38;5.30;;;25.80;32.30;;;;;;5034103;28;20079;-75
2023/06/01 11:02:48;;;;;;;9.50;5.13;;;26.00;31.60;;;;;;5033324;28;20490;-77
2023/06/01 11:05:36;;;;;;;9.35;5.18;;;26.10;31.60;;;;;;5031803;28;20452;-73
2023/06/01 11:08:03;;;;;;;8.65;4.53;;;26.30;32.10;;;;;;5032518;28;20390;-72
2023/06/01 11:11:02;;;;;;;10.55;5.20;;;26.60;32.20;;;;;;5031049;28;20112;-75
2023/06/01 11:13:36;;;;;;;9.32;5.25;;;26.60;30.60;;;;;;5030983;28;20038;-73
2023/06/01 11:16:04;;;;;;;8.57;5.47;;;26.70;31.90;;;;;;5031997;28;20021;-74
2023/06/01 11:18:49;;;;;;;10.23;5.50;;;26.90;30.70;;;;;;5031944;28;20390;-73
2023/06/01 11:21:21;;;;;;;6.93;4.93;;;26.90;30.20;;;;;;5031225;28;20045;-75
2023/06/01 11:23:47;;;;;;;11.95;5.55;;;27.20;31.50;;;;;;5032940;28;20026;-72
2023/06/01 11:26:18;;;;;;;25.38;16.70;;;27.20;29.50;;;;;;5032183;28;20054;-74
2023/06/01 11:28:45;;;;;;;8.45;6.40;;;27.30;30.90;;;;;;5033328;28;20132;-72
2023/06/01 11:31:16;;;;;;;10.13;5.25;;;27.60;30.90;;;;;;5032984;28;20021;-71
2023/06/01 11:33:52;;;;;;;8.15;4.82;;;27.60;28.90;;;;;;5031903;28;20071;-71
2023/06/01 11:36:20;;;;;;;10.52;4.88;;;27.70;30.70;;;;;;5033369;28;20306;-73
2023/06/01 11:38:46;;;;;;;9.55;4.95;;;27.80;29.60;;;;;;5031704;28;20120;-76
2023/06/01 11:41:11;;;;;;;8.00;5.38;;;28.00;29.30;;;;;;5032838;28;20100;-74
2023/06/01 11:43:37;;;;;;;7.55;5.20;;;27.80;28.40;;;;;;5032839;28;20539;-74
2023/06/01 11:46:04;;;;;;;7.97;5.22;;;27.70;29.20;;;;;;5032909;28;20038;-74
2023/06/01 11:48:31;;;;;;;7.93;4.70;;;27.90;29.20;;;;;;5032670;28;20086;-75
2023/06/01 11:50:59;;;;;;;6.15;4.90;;;27.60;28.50;;;;;;5033237;28;20029;-73
2023/06/01 11:53:24;;;;;;;8.60;5.28;;;27.60;29.80;;;;;;5032878;28;20072;-72
2023/06/01 11:55:56;;;;;;;11.63;5.20;;;27.80;29.60;;;;;;5031749;28;20469;-75
2023/06/01 11:58:30;;;;;;;9.45;5.05;;;28.00;27.80;;;;;;5031246;28;20022;-73
2023/06/01 12:00:57;;;;;;;6.82;4.68;;;28.00;28.60;;;;;;5032545;28;20030;-73
2023/06/01 12:03:24;;;;;;;6.78;5.20;;;27.80;27.70;;;;;;5032281;28;20013;-75
2023/06/01 12:05:50;;;;;;;8.88;5.18;;;27.70;28.20;;;;;;5032693;28;20104;-71
2023/06/01 12:08:19;;;;;;;10.55;4.97;;;27.50;28.50;;;;;;5036587;28;20025;-72
2023/06/01 12:10:47;;;;;;;9.65;5.10;;;27.40;28.50;;;;;;5038177;28;20037;-70
2023/06/01 12:13:17;;;;;;;9.30;5.10;;;27.60;30.60;;;;;;5039040;28;20022;-72
2023/06/01 12:15:43;;;;;;;9.18;5.32;;;28.00;29.00;;;;;;5039119;28;20022;-72
2023/06/01 12:18:09;;;;;;;7.53;4.93;;;28.10;27.50;;;;;;5038854;28;20025;-71
2023/06/01 12:20:36;;;;;;;10.52;5.88;;;28.00;27.40;;;;;;5038769;28;20103;-72
2023/06/01 12:23:16;;;;;;;7.88;5.47;;;27.90;27.70;;;;;;5038833;28;20040;-72
2023/06/01 12:25:56;;;;;;;10.20;5.20;;;28.10;27.70;;;;;;5039362;28;20022;-72
2023/06/01 12:28:24;;;;;;;5.95;4.45;;;28.60;26.60;;;;;;5038984;28;20072;-71
2023/06/01 12:31:12;;;;;;;10.18;5.50;;;29.00;26.40;;;;;;5038372;28;20500;-72
2023/06/01 12:33:38;;;;;;;13.57;5.28;;;29.40;25.60;;;;;;5038673;28;20449;-71
2023/06/01 12:36:06;;;;;;;7.88;4.78;;;29.00;25.70;;;;;;5037734;28;20029;-72
2023/06/01 12:38:36;;;;;;;8.07;4.45;;;28.80;26.50;;;;;;5039037;28;20025;-72
2023/06/01 12:41:11;;;;;;;7.70;4.63;;;29.00;26.40;;;;;;5039158;28;20025;-72
2023/06/01 12:43:38;;;;;;;12.75;5.40;;;29.30;26.40;;;;;;5039338;28;20108;-72
2023/06/01 12:46:07;;;;;;;6.63;4.97;;;29.00;25.80;;;;;;5038896;28;20032;-72
2023/06/01 12:48:35;;;;;;;9.00;5.03;;;28.80;25.70;;;;;;5038824;28;20399;-72